PAL2040 RPVE-RPLL
Flight info
| Callsign | PAL2040 |
|---|---|
| Flight time | N/A |
| Altitude | 28000 |
| Route | MINO8A MINOR B473 LAIYA LAIY5R |
| Aircraft | A320/M-SDE2E3FGHIJ1RWXY/LB1 |
Departure
| Time | 2026-04-23 14:00 |
|---|---|
| Airport | Godofredo P. Ramos Airport (RPVE) |
Arrival
| Time | N/A |
|---|---|
| Airport | Ninoy Aquino International Airport (RPLL) |
| Time | Latitude | Longitude | Altitude | Speed | Heading |
|---|---|---|---|---|---|
| 2026-04-23 13:54 | 11.92496 | 121.95300 | 13 ft | 0 kts | 63° |
| 2026-04-23 13:55 | 11.92498 | 121.95304 | 13 ft | 1 kts | 64° |
| 2026-04-23 13:55 | 11.92501 | 121.95314 | 13 ft | 1 kts | 81° |
| 2026-04-23 13:55 | 11.92497 | 121.95325 | 13 ft | 1 kts | 134° |
| 2026-04-23 13:56 | 11.92484 | 121.95335 | 13 ft | 2 kts | 129° |
| 2026-04-23 13:56 | 11.92474 | 121.95355 | 13 ft | 3 kts | 113° |
| 2026-04-23 13:56 | 11.92463 | 121.95378 | 13 ft | 3 kts | 134° |
| 2026-04-23 13:56 | 11.92440 | 121.95376 | 13 ft | 4 kts | 223° |
| 2026-04-23 13:57 | 11.92424 | 121.95348 | 13 ft | 5 kts | 247° |
| 2026-04-23 13:57 | 11.92409 | 121.95312 | 13 ft | 5 kts | 247° |
| 2026-04-23 13:57 | 11.92391 | 121.95271 | 13 ft | 6 kts | 243° |
| 2026-04-23 13:57 | 11.92369 | 121.95226 | 13 ft | 7 kts | 243° |
| 2026-04-23 13:58 | 11.92343 | 121.95177 | 13 ft | 8 kts | 240° |
| 2026-04-23 13:58 | 11.92314 | 121.95124 | 13 ft | 8 kts | 242° |
| 2026-04-23 13:58 | 11.92275 | 121.95074 | 13 ft | 9 kts | 216° |
| 2026-04-23 13:58 | 11.92228 | 121.95026 | 13 ft | 9 kts | 248° |
| 2026-04-23 13:59 | 11.92257 | 121.95027 | 13 ft | 7 kts | 48° |
| 2026-04-23 13:59 | 11.92287 | 121.95074 | 13 ft | 8 kts | 61° |
| 2026-04-23 13:59 | 11.92337 | 121.95174 | 14 ft | 42 kts | 62° |
| 2026-04-23 13:59 | 11.92595 | 121.95681 | 14 ft | 116 kts | 63° |
| 2026-04-23 14:00 | 11.92889 | 121.96265 | 15 ft | 155 kts | 64° |
| 2026-04-23 14:00 | 11.93449 | 121.97449 | 1190 ft | 121 kts | 65° |
| 2026-04-23 14:00 | 11.93765 | 121.98261 | 1536 ft | 138 kts | 63° |
| 2026-04-23 14:00 | 11.94239 | 121.99190 | 1960 ft | 155 kts | 60° |
| 2026-04-23 14:01 | 11.94786 | 122.00207 | 2455 ft | 172 kts | 60° |
| 2026-04-23 14:01 | 11.95369 | 122.01314 | 2969 ft | 188 kts | 60° |
| 2026-04-23 14:01 | 11.96075 | 122.02523 | 3505 ft | 206 kts | 48° |
| 2026-04-23 14:01 | 11.97250 | 122.03467 | 3962 ft | 229 kts | 27° |
| 2026-04-23 14:02 | 11.98718 | 122.04209 | 4612 ft | 247 kts | 24° |
| 2026-04-23 14:02 | 12.00329 | 122.04987 | 5287 ft | 266 kts | 24° |
| 2026-04-23 14:02 | 12.02007 | 122.05810 | 6171 ft | 275 kts | 24° |
| 2026-04-23 14:02 | 12.03749 | 122.06678 | 7067 ft | 284 kts | 24° |
| 2026-04-23 14:03 | 12.05576 | 122.07593 | 7664 ft | 304 kts | 24° |
| 2026-04-23 14:03 | 12.07535 | 122.08579 | 7960 ft | 334 kts | 24° |
| 2026-04-23 14:03 | 12.09736 | 122.09689 | 8113 ft | 367 kts | 25° |
| 2026-04-23 14:03 | 12.12099 | 122.10884 | 8842 ft | 382 kts | 25° |
| 2026-04-23 14:04 | 12.14424 | 122.12064 | 10204 ft | 376 kts | 25° |
| 2026-04-23 14:04 | 12.16715 | 122.13227 | 11371 ft | 373 kts | 25° |
| 2026-04-23 14:04 | 12.19106 | 122.14437 | 11900 ft | 388 kts | 25° |
| 2026-04-23 14:04 | 12.21554 | 122.15676 | 12230 ft | 407 kts | 25° |
| 2026-04-23 14:05 | 12.24135 | 122.16985 | 12763 ft | 418 kts | 25° |
| 2026-04-23 14:05 | 12.26815 | 122.18346 | 13576 ft | 422 kts | 25° |
| 2026-04-23 14:05 | 12.29463 | 122.19690 | 14310 ft | 425 kts | 25° |
| 2026-04-23 14:05 | 12.32132 | 122.21034 | 14952 ft | 429 kts | 23° |
| 2026-04-23 14:06 | 12.34988 | 122.21928 | 15507 ft | 431 kts | 6° |
| 2026-04-23 14:06 | 12.37962 | 122.21845 | 16063 ft | 430 kts | 347° |
| 2026-04-23 14:06 | 12.40780 | 122.20785 | 16564 ft | 429 kts | 329° |
| 2026-04-23 14:06 | 12.43249 | 122.19148 | 16961 ft | 429 kts | 324° |
| 2026-04-23 14:07 | 12.45729 | 122.17388 | 17264 ft | 434 kts | 323° |
| 2026-04-23 14:07 | 12.50725 | 122.13837 | 17970 ft | 439 kts | 324° |
| 2026-04-23 14:07 | 12.53225 | 122.12078 | 18336 ft | 442 kts | 324° |
| 2026-04-23 14:08 | 12.55780 | 122.10289 | 18722 ft | 445 kts | 324° |
| 2026-04-23 14:08 | 12.58318 | 122.08518 | 19105 ft | 447 kts | 324° |
| 2026-04-23 14:08 | 12.60916 | 122.06707 | 19497 ft | 450 kts | 324° |
| 2026-04-23 14:08 | 12.63485 | 122.04918 | 19888 ft | 452 kts | 324° |
| 2026-04-23 14:09 | 12.66108 | 122.03092 | 20290 ft | 455 kts | 324° |
| 2026-04-23 14:09 | 12.68691 | 122.01294 | 20687 ft | 458 kts | 324° |
| 2026-04-23 14:09 | 12.71351 | 121.99442 | 21099 ft | 460 kts | 324° |
| 2026-04-23 14:09 | 12.73972 | 121.97617 | 21501 ft | 463 kts | 324° |
| 2026-04-23 14:10 | 12.76664 | 121.95743 | 21900 ft | 466 kts | 324° |
| 2026-04-23 14:10 | 12.79330 | 121.93886 | 22283 ft | 468 kts | 324° |
| 2026-04-23 14:10 | 12.82043 | 121.91996 | 22658 ft | 471 kts | 324° |
| 2026-04-23 14:10 | 12.84750 | 121.90109 | 23014 ft | 473 kts | 324° |
| 2026-04-23 14:11 | 12.87488 | 121.88200 | 23091 ft | 475 kts | 324° |
| 2026-04-23 14:11 | 12.90222 | 121.86294 | 23029 ft | 473 kts | 324° |
| 2026-04-23 14:11 | 12.92950 | 121.84392 | 23006 ft | 473 kts | 324° |
| 2026-04-23 14:11 | 12.95655 | 121.82506 | 22905 ft | 468 kts | 324° |
| 2026-04-23 14:12 | 12.98330 | 121.80640 | 22357 ft | 463 kts | 324° |
| 2026-04-23 14:12 | 13.00984 | 121.78790 | 21549 ft | 462 kts | 324° |
| 2026-04-23 14:12 | 13.03614 | 121.76954 | 20810 ft | 458 kts | 324° |
| 2026-04-23 14:12 | 13.06210 | 121.75143 | 20249 ft | 452 kts | 324° |
| 2026-04-23 14:13 | 13.08807 | 121.73329 | 19999 ft | 451 kts | 324° |
| 2026-04-23 14:13 | 13.11429 | 121.71497 | 19991 ft | 452 kts | 324° |
| 2026-04-23 14:13 | 13.14039 | 121.69672 | 19990 ft | 452 kts | 324° |
| 2026-04-23 14:13 | 13.16629 | 121.67860 | 19989 ft | 452 kts | 324° |
| 2026-04-23 14:14 | 13.19200 | 121.66062 | 19989 ft | 452 kts | 324° |
| 2026-04-23 14:14 | 13.21822 | 121.64227 | 19989 ft | 452 kts | 324° |
| 2026-04-23 14:14 | 13.24405 | 121.62419 | 19989 ft | 452 kts | 324° |
| 2026-04-23 14:14 | 13.27004 | 121.60600 | 19989 ft | 452 kts | 324° |
| 2026-04-23 14:15 | 13.29595 | 121.58787 | 19989 ft | 452 kts | 324° |
| 2026-04-23 14:15 | 13.32176 | 121.56979 | 19989 ft | 452 kts | 324° |
| 2026-04-23 14:15 | 13.34814 | 121.55132 | 19989 ft | 452 kts | 324° |
| 2026-04-23 14:15 | 13.37383 | 121.53333 | 19989 ft | 452 kts | 324° |
| 2026-04-23 14:16 | 13.40004 | 121.51496 | 19989 ft | 452 kts | 324° |
| 2026-04-23 14:16 | 13.42601 | 121.49676 | 19989 ft | 452 kts | 324° |
| 2026-04-23 14:16 | 13.45202 | 121.47854 | 19989 ft | 452 kts | 324° |
| 2026-04-23 14:16 | 13.47799 | 121.46033 | 19989 ft | 452 kts | 324° |
| 2026-04-23 14:17 | 13.50406 | 121.44204 | 19989 ft | 452 kts | 324° |
| 2026-04-23 14:17 | 13.53005 | 121.42381 | 19989 ft | 452 kts | 324° |
| 2026-04-23 14:17 | 13.55558 | 121.40540 | 19982 ft | 446 kts | 320° |
| 2026-04-23 14:17 | 13.57744 | 121.38420 | 19982 ft | 424 kts | 309° |
| 2026-04-23 14:18 | 13.59485 | 121.36055 | 19987 ft | 403 kts | 303° |
| 2026-04-23 14:18 | 13.61007 | 121.33726 | 19749 ft | 393 kts | 301° |
| 2026-04-23 14:18 | 13.62513 | 121.31373 | 19399 ft | 385 kts | 301° |
| 2026-04-23 14:18 | 13.63966 | 121.29118 | 19059 ft | 377 kts | 302° |
| 2026-04-23 14:19 | 13.65402 | 121.26906 | 18723 ft | 370 kts | 302° |
| 2026-04-23 14:19 | 13.66818 | 121.24734 | 18391 ft | 363 kts | 302° |
| 2026-04-23 14:19 | 13.68208 | 121.22605 | 18062 ft | 356 kts | 302° |
| 2026-04-23 14:19 | 13.69592 | 121.20484 | 17730 ft | 349 kts | 302° |
| 2026-04-23 14:20 | 13.70918 | 121.18452 | 17410 ft | 343 kts | 302° |
| 2026-04-23 14:20 | 13.72253 | 121.16405 | 17084 ft | 337 kts | 302° |
| 2026-04-23 14:20 | 13.73550 | 121.14415 | 16766 ft | 331 kts | 302° |
| 2026-04-23 14:20 | 13.74806 | 121.12489 | 16455 ft | 326 kts | 302° |
| 2026-04-23 14:21 | 13.76061 | 121.10564 | 16141 ft | 320 kts | 302° |
| 2026-04-23 14:21 | 13.77290 | 121.08650 | 15842 ft | 314 kts | 304° |
| 2026-04-23 14:21 | 13.78485 | 121.06821 | 15593 ft | 308 kts | 305° |
| 2026-04-23 14:21 | 13.79662 | 121.05025 | 15357 ft | 305 kts | 304° |
| 2026-04-23 14:22 | 13.80862 | 121.03192 | 15124 ft | 306 kts | 304° |
| 2026-04-23 14:22 | 13.82048 | 121.01375 | 14747 ft | 305 kts | 304° |
| 2026-04-23 14:22 | 13.83212 | 120.99590 | 14375 ft | 302 kts | 304° |
| 2026-04-23 14:22 | 13.84384 | 120.97790 | 13997 ft | 301 kts | 304° |
| 2026-04-23 14:23 | 13.85531 | 120.96026 | 13581 ft | 301 kts | 304° |
| 2026-04-23 14:23 | 13.86705 | 120.94221 | 13076 ft | 303 kts | 303° |
| 2026-04-23 14:23 | 13.87875 | 120.92422 | 12577 ft | 305 kts | 303° |
| 2026-04-23 14:23 | 13.89053 | 120.90610 | 12077 ft | 306 kts | 303° |
| 2026-04-23 14:24 | 13.90226 | 120.88807 | 11581 ft | 308 kts | 304° |
| 2026-04-23 14:24 | 13.91631 | 120.87148 | 11070 ft | 310 kts | 319° |
| 2026-04-23 14:24 | 13.93472 | 120.85974 | 10570 ft | 313 kts | 334° |
| 2026-04-23 14:24 | 13.95456 | 120.85099 | 10066 ft | 315 kts | 336° |
| 2026-04-23 14:25 | 13.97500 | 120.84244 | 9439 ft | 320 kts | 336° |
| 2026-04-23 14:25 | 13.99542 | 120.83393 | 8925 ft | 320 kts | 336° |
| 2026-04-23 14:25 | 14.01614 | 120.82522 | 8421 ft | 321 kts | 336° |
| 2026-04-23 14:25 | 14.03658 | 120.81657 | 7923 ft | 321 kts | 336° |
| 2026-04-23 14:26 | 14.05700 | 120.80788 | 7425 ft | 321 kts | 336° |
| 2026-04-23 14:26 | 14.07764 | 120.79908 | 6923 ft | 320 kts | 336° |
| 2026-04-23 14:26 | 14.09802 | 120.79037 | 6422 ft | 320 kts | 336° |
| 2026-04-23 14:26 | 14.11871 | 120.78153 | 5920 ft | 320 kts | 336° |
| 2026-04-23 14:27 | 14.13894 | 120.77284 | 5528 ft | 316 kts | 336° |
| 2026-04-23 14:27 | 14.15909 | 120.76417 | 5273 ft | 307 kts | 336° |
| 2026-04-23 14:27 | 14.17849 | 120.75593 | 5033 ft | 299 kts | 338° |
| 2026-04-23 14:27 | 14.19778 | 120.74989 | 4966 ft | 285 kts | 346° |
| 2026-04-23 14:28 | 14.21704 | 120.74545 | 4966 ft | 282 kts | 348° |
| 2026-04-23 14:28 | 14.23609 | 120.74134 | 4966 ft | 281 kts | 348° |
| 2026-04-23 14:28 | 14.25529 | 120.73735 | 4965 ft | 281 kts | 347° |
| 2026-04-23 14:28 | 14.27440 | 120.73347 | 4963 ft | 280 kts | 348° |
| 2026-04-23 14:29 | 14.29353 | 120.72945 | 4961 ft | 276 kts | 347° |
| 2026-04-23 14:29 | 14.31182 | 120.72565 | 4956 ft | 260 kts | 348° |
| 2026-04-23 14:29 | 14.32908 | 120.72205 | 4956 ft | 250 kts | 348° |
| 2026-04-23 14:29 | 14.34621 | 120.71847 | 4961 ft | 250 kts | 348° |
| 2026-04-23 14:30 | 14.36307 | 120.71500 | 4963 ft | 250 kts | 348° |
| 2026-04-23 14:30 | 14.38007 | 120.71152 | 4964 ft | 249 kts | 348° |
| 2026-04-23 14:30 | 14.39688 | 120.70807 | 4950 ft | 238 kts | 348° |
| 2026-04-23 14:30 | 14.41244 | 120.70470 | 4946 ft | 225 kts | 348° |
| 2026-04-23 14:31 | 14.42788 | 120.70135 | 4958 ft | 225 kts | 348° |
| 2026-04-23 14:31 | 14.44299 | 120.69813 | 4961 ft | 224 kts | 348° |
| 2026-04-23 14:31 | 14.45813 | 120.69495 | 5046 ft | 214 kts | 347° |
| 2026-04-23 14:31 | 14.47222 | 120.69209 | 5002 ft | 197 kts | 348° |
| 2026-04-23 14:32 | 14.48500 | 120.68948 | 4952 ft | 180 kts | 347° |
| 2026-04-23 14:32 | 14.49713 | 120.68709 | 4982 ft | 173 kts | 348° |
| 2026-04-23 14:32 | 14.50865 | 120.68658 | 4921 ft | 163 kts | 22° |
| 2026-04-23 14:32 | 14.51630 | 120.69447 | 4941 ft | 160 kts | 74° |
| 2026-04-23 14:33 | 14.51649 | 120.70554 | 4961 ft | 156 kts | 113° |
| 2026-04-23 14:33 | 14.51022 | 120.71450 | 4975 ft | 155 kts | 141° |
| 2026-04-23 14:33 | 14.50164 | 120.72163 | 4570 ft | 165 kts | 139° |
| 2026-04-23 14:33 | 14.49242 | 120.72926 | 3973 ft | 178 kts | 138° |
| 2026-04-23 14:34 | 14.48271 | 120.73756 | 3354 ft | 192 kts | 138° |
| 2026-04-23 14:34 | 14.47235 | 120.74661 | 2919 ft | 194 kts | 138° |
| 2026-04-23 14:34 | 14.46229 | 120.75545 | 2685 ft | 186 kts | 138° |
| 2026-04-23 14:34 | 14.45277 | 120.76384 | 2443 ft | 176 kts | 138° |
| 2026-04-23 14:35 | 14.44368 | 120.77188 | 2185 ft | 166 kts | 137° |
| 2026-04-23 14:35 | 14.43523 | 120.77933 | 1996 ft | 153 kts | 137° |
| 2026-04-23 14:35 | 14.42732 | 120.78635 | 1986 ft | 149 kts | 137° |
| 2026-04-23 14:35 | 14.41948 | 120.79332 | 1992 ft | 148 kts | 137° |
| 2026-04-23 14:36 | 14.41165 | 120.80029 | 1995 ft | 148 kts | 137° |
| 2026-04-23 14:36 | 14.40491 | 120.80837 | 1985 ft | 147 kts | 116° |
| 2026-04-23 14:36 | 14.40193 | 120.81847 | 1994 ft | 148 kts | 94° |
| 2026-04-23 14:36 | 14.40311 | 120.82889 | 1996 ft | 149 kts | 71° |
| 2026-04-23 14:37 | 14.40770 | 120.83865 | 1999 ft | 148 kts | 60° |
| 2026-04-23 14:37 | 14.41292 | 120.84781 | 1991 ft | 149 kts | 60° |
| 2026-04-23 14:37 | 14.41825 | 120.85702 | 1991 ft | 148 kts | 60° |
| 2026-04-23 14:37 | 14.42353 | 120.86629 | 1966 ft | 149 kts | 61° |
| 2026-04-23 14:38 | 14.42867 | 120.87529 | 1886 ft | 148 kts | 61° |
| 2026-04-23 14:38 | 14.43373 | 120.88478 | 1821 ft | 153 kts | 61° |